sensor_id;sensor_type;location;lat;lon;timestamp;P1;durP1;ratioP1;P2;durP2;ratioP2
35424;SDS011;21537;48.226;16.400;2022-09-21T00:00:38;1.98;;;1.20;;
35424;SDS011;21537;48.226;16.400;2022-09-21T00:03:04;2.08;;;1.40;;
35424;SDS011;21537;48.226;16.400;2022-09-21T00:05:31;1.67;;;1.25;;
35424;SDS011;21537;48.226;16.400;2022-09-21T00:08:01;1.98;;;1.40;;
35424;SDS011;21537;48.226;16.400;2022-09-21T00:10:28;5.55;;;1.48;;
35424;SDS011;21537;48.226;16.400;2022-09-21T00:12:55;7.82;;;1.52;;
35424;SDS011;21537;48.226;16.400;2022-09-21T00:15:22;4.35;;;1.90;;
35424;SDS011;21537;48.226;16.400;2022-09-21T00:17:51;3.15;;;1.60;;
35424;SDS011;21537;48.226;16.400;2022-09-21T00:20:18;2.47;;;1.38;;
35424;SDS011;21537;48.226;16.400;2022-09-21T00:22:45;3.17;;;1.70;;
35424;SDS011;21537;48.226;16.400;2022-09-21T00:25:12;3.65;;;1.55;;
35424;SDS011;21537;48.226;16.400;2022-09-21T00:27:38;7.65;;;1.88;;
35424;SDS011;21537;48.226;16.400;2022-09-21T00:30:04;2.80;;;1.63;;
35424;SDS011;21537;48.226;16.400;2022-09-21T00:32:31;3.75;;;1.58;;
35424;SDS011;21537;48.226;16.400;2022-09-21T00:34:59;4.55;;;1.80;;
35424;SDS011;21537;48.226;16.400;2022-09-21T00:37:25;3.10;;;1.50;;
35424;SDS011;21537;48.226;16.400;2022-09-21T00:39:52;2.17;;;1.50;;
35424;SDS011;21537;48.226;16.400;2022-09-21T00:44:45;5.88;;;1.55;;
35424;SDS011;21537;48.226;16.400;2022-09-21T00:47:12;1.50;;;1.40;;
35424;SDS011;21537;48.226;16.400;2022-09-21T00:49:40;2.90;;;1.40;;
35424;SDS011;21537;48.226;16.400;2022-09-21T00:52:07;6.82;;;1.90;;
35424;SDS011;21537;48.226;16.400;2022-09-21T00:54:40;7.07;;;1.75;;
35424;SDS011;21537;48.226;16.400;2022-09-21T00:59:38;3.28;;;1.70;;
35424;SDS011;21537;48.226;16.400;2022-09-21T01:02:04;2.80;;;1.52;;
35424;SDS011;21537;48.226;16.400;2022-09-21T01:04:31;3.38;;;1.73;;
35424;SDS011;21537;48.226;16.400;2022-09-21T01:06:57;2.60;;;1.42;;
35424;SDS011;21537;48.226;16.400;2022-09-21T01:09:26;2.25;;;1.52;;
35424;SDS011;21537;48.226;16.400;2022-09-21T01:11:57;6.20;;;1.88;;
35424;SDS011;21537;48.226;16.400;2022-09-21T01:18:04;6.28;;;1.77;;
35424;SDS011;21537;48.226;16.400;2022-09-21T01:29:20;3.78;;;1.55;;
35424;SDS011;21537;48.226;16.400;2022-09-21T01:31:57;3.00;;;1.60;;
35424;SDS011;21537;48.226;16.400;2022-09-21T01:36:55;3.38;;;1.40;;
35424;SDS011;21537;48.226;16.400;2022-09-21T01:39:23;3.70;;;1.52;;
35424;SDS011;21537;48.226;16.400;2022-09-21T01:41:50;2.72;;;1.60;;
35424;SDS011;21537;48.226;16.400;2022-09-21T01:44:20;4.28;;;1.60;;
35424;SDS011;21537;48.226;16.400;2022-09-21T01:46:49;2.45;;;1.67;;
35424;SDS011;21537;48.226;16.400;2022-09-21T01:49:20;2.13;;;1.35;;
35424;SDS011;21537;48.226;16.400;2022-09-21T01:51:52;2.47;;;1.60;;
35424;SDS011;21537;48.226;16.400;2022-09-21T01:54:36;3.45;;;1.60;;
35424;SDS011;21537;48.226;16.400;2022-09-21T01:59:53;3.78;;;1.73;;
35424;SDS011;21537;48.226;16.400;2022-09-21T02:02:45;1.88;;;1.30;;
35424;SDS011;21537;48.226;16.400;2022-09-21T02:05:10;4.50;;;1.63;;
35424;SDS011;21537;48.226;16.400;2022-09-21T02:07:40;3.80;;;1.60;;
35424;SDS011;21537;48.226;16.400;2022-09-21T02:10:07;2.28;;;1.70;;
35424;SDS011;21537;48.226;16.400;2022-09-21T02:12:38;2.78;;;1.65;;
35424;SDS011;21537;48.226;16.400;2022-09-21T02:15:04;2.60;;;1.60;;
35424;SDS011;21537;48.226;16.400;2022-09-21T02:17:45;2.17;;;1.50;;
35424;SDS011;21537;48.226;16.400;2022-09-21T02:20:20;2.33;;;1.83;;
35424;SDS011;21537;48.226;16.400;2022-09-21T02:23:02;3.50;;;1.63;;
35424;SDS011;21537;48.226;16.400;2022-09-21T02:25:58;1.83;;;1.35;;
35424;SDS011;21537;48.226;16.400;2022-09-21T02:34:04;1.75;;;1.42;;
35424;SDS011;21537;48.226;16.400;2022-09-21T02:36:44;4.20;;;1.83;;
35424;SDS011;21537;48.226;16.400;2022-09-21T02:39:18;2.35;;;1.60;;
35424;SDS011;21537;48.226;16.400;2022-09-21T02:44:33;4.43;;;1.70;;
35424;SDS011;21537;48.226;16.400;2022-09-21T02:47:11;2.55;;;1.95;;
35424;SDS011;21537;48.226;16.400;2022-09-21T02:49:57;7.70;;;2.40;;
35424;SDS011;21537;48.226;16.400;2022-09-21T02:52:29;2.58;;;1.80;;
35424;SDS011;21537;48.226;16.400;2022-09-21T02:54:56;2.67;;;1.50;;
35424;SDS011;21537;48.226;16.400;2022-09-21T02:57:23;4.97;;;1.85;;
35424;SDS011;21537;48.226;16.400;2022-09-21T02:59:50;5.00;;;1.80;;
35424;SDS011;21537;48.226;16.400;2022-09-21T03:02:17;2.20;;;1.58;;
35424;SDS011;21537;48.226;16.400;2022-09-21T03:04:43;3.78;;;1.90;;
35424;SDS011;21537;48.226;16.400;2022-09-21T03:07:14;3.55;;;1.83;;
35424;SDS011;21537;48.226;16.400;2022-09-21T03:09:41;4.05;;;1.60;;
35424;SDS011;21537;48.226;16.400;2022-09-21T03:12:06;5.05;;;1.85;;
35424;SDS011;21537;48.226;16.400;2022-09-21T03:14:32;7.00;;;1.92;;
35424;SDS011;21537;48.226;16.400;2022-09-21T03:16:58;4.47;;;1.65;;
35424;SDS011;21537;48.226;16.400;2022-09-21T03:19:24;3.03;;;1.42;;
35424;SDS011;21537;48.226;16.400;2022-09-21T03:21:51;2.65;;;1.60;;
35424;SDS011;21537;48.226;16.400;2022-09-21T03:24:18;3.03;;;1.90;;
35424;SDS011;21537;48.226;16.400;2022-09-21T03:27:03;2.90;;;2.05;;
35424;SDS011;21537;48.226;16.400;2022-09-21T03:29:29;4.13;;;1.80;;
35424;SDS011;21537;48.226;16.400;2022-09-21T03:31:55;2.03;;;1.40;;
35424;SDS011;21537;48.226;16.400;2022-09-21T03:34:20;2.95;;;1.80;;
35424;SDS011;21537;48.226;16.400;2022-09-21T03:36:47;4.22;;;1.60;;
35424;SDS011;21537;48.226;16.400;2022-09-21T03:39:13;4.82;;;1.80;;
35424;SDS011;21537;48.226;16.400;2022-09-21T03:41:38;3.97;;;1.70;;
35424;SDS011;21537;48.226;16.400;2022-09-21T03:44:04;4.47;;;1.77;;
35424;SDS011;21537;48.226;16.400;2022-09-21T03:46:30;7.38;;;1.63;;
35424;SDS011;21537;48.226;16.400;2022-09-21T03:48:59;4.53;;;1.95;;
35424;SDS011;21537;48.226;16.400;2022-09-21T03:51:27;5.07;;;1.90;;
35424;SDS011;21537;48.226;16.400;2022-09-21T03:53:55;4.57;;;1.95;;
35424;SDS011;21537;48.226;16.400;2022-09-21T03:56:22;6.57;;;1.92;;
35424;SDS011;21537;48.226;16.400;2022-09-21T03:58:48;3.58;;;2.03;;
35424;SDS011;21537;48.226;16.400;2022-09-21T04:01:14;4.50;;;2.05;;
35424;SDS011;21537;48.226;16.400;2022-09-21T04:03:39;5.65;;;2.25;;
35424;SDS011;21537;48.226;16.400;2022-09-21T04:06:09;6.90;;;2.35;;
35424;SDS011;21537;48.226;16.400;2022-09-21T04:08:36;3.15;;;2.08;;
35424;SDS011;21537;48.226;16.400;2022-09-21T04:11:15;4.72;;;2.13;;
35424;SDS011;21537;48.226;16.400;2022-09-21T04:13:43;6.00;;;2.45;;
35424;SDS011;21537;48.226;16.400;2022-09-21T04:16:13;5.82;;;1.92;;
35424;SDS011;21537;48.226;16.400;2022-09-21T04:18:38;4.45;;;2.20;;
35424;SDS011;21537;48.226;16.400;2022-09-21T04:21:04;5.57;;;2.17;;
35424;SDS011;21537;48.226;16.400;2022-09-21T04:23:30;4.85;;;2.60;;
35424;SDS011;21537;48.226;16.400;2022-09-21T04:25:57;3.53;;;2.35;;
35424;SDS011;21537;48.226;16.400;2022-09-21T04:28:23;4.32;;;2.30;;
35424;SDS011;21537;48.226;16.400;2022-09-21T04:30:52;2.63;;;1.90;;
35424;SDS011;21537;48.226;16.400;2022-09-21T04:33:18;3.60;;;2.50;;
35424;SDS011;21537;48.226;16.400;2022-09-21T04:35:44;3.13;;;1.98;;
35424;SDS011;21537;48.226;16.400;2022-09-21T04:38:10;5.10;;;2.67;;
35424;SDS011;21537;48.226;16.400;2022-09-21T04:40:37;4.88;;;2.80;;
35424;SDS011;21537;48.226;16.400;2022-09-21T04:43:03;7.53;;;2.90;;
35424;SDS011;21537;48.226;16.400;2022-09-21T04:45:29;4.20;;;2.80;;
35424;SDS011;21537;48.226;16.400;2022-09-21T04:47:56;5.65;;;2.67;;
35424;SDS011;21537;48.226;16.400;2022-09-21T04:50:22;8.70;;;3.10;;
35424;SDS011;21537;48.226;16.400;2022-09-21T04:53:01;5.82;;;2.90;;
35424;SDS011;21537;48.226;16.400;2022-09-21T04:55:27;6.70;;;2.80;;
35424;SDS011;21537;48.226;16.400;2022-09-21T04:57:52;4.65;;;2.70;;
35424;SDS011;21537;48.226;16.400;2022-09-21T05:00:18;12.38;;;3.28;;
35424;SDS011;21537;48.226;16.400;2022-09-21T05:02:44;8.50;;;3.30;;
35424;SDS011;21537;48.226;16.400;2022-09-21T05:05:10;10.63;;;3.20;;
35424;SDS011;21537;48.226;16.400;2022-09-21T05:07:35;6.60;;;3.38;;
35424;SDS011;21537;48.226;16.400;2022-09-21T05:10:01;8.55;;;3.38;;
35424;SDS011;21537;48.226;16.400;2022-09-21T05:12:27;9.80;;;3.50;;
35424;SDS011;21537;48.226;16.400;2022-09-21T05:14:53;8.50;;;3.20;;
35424;SDS011;21537;48.226;16.400;2022-09-21T05:17:20;10.20;;;3.13;;
35424;SDS011;21537;48.226;16.400;2022-09-21T05:19:47;8.38;;;3.30;;
35424;SDS011;21537;48.226;16.400;2022-09-21T05:22:14;6.57;;;2.85;;
35424;SDS011;21537;48.226;16.400;2022-09-21T05:24:39;6.20;;;2.85;;
35424;SDS011;21537;48.226;16.400;2022-09-21T05:27:05;7.47;;;3.33;;
35424;SDS011;21537;48.226;16.400;2022-09-21T05:29:31;11.05;;;3.22;;
35424;SDS011;21537;48.226;16.400;2022-09-21T05:39:50;9.68;;;2.90;;
35424;SDS011;21537;48.226;16.400;2022-09-21T05:42:16;10.43;;;3.15;;
35424;SDS011;21537;48.226;16.400;2022-09-21T05:44:42;7.97;;;3.17;;
35424;SDS011;21537;48.226;16.400;2022-09-21T05:47:35;11.23;;;2.50;;
35424;SDS011;21537;48.226;16.400;2022-09-21T05:53:06;4.60;;;2.67;;
35424;SDS011;21537;48.226;16.400;2022-09-21T05:55:56;8.50;;;2.53;;
35424;SDS011;21537;48.226;16.400;2022-09-21T05:58:34;9.33;;;2.53;;
35424;SDS011;21537;48.226;16.400;2022-09-21T06:03:55;5.68;;;2.60;;
35424;SDS011;21537;48.226;16.400;2022-09-21T06:06:22;12.55;;;3.00;;
35424;SDS011;21537;48.226;16.400;2022-09-21T06:08:52;8.10;;;2.90;;
35424;SDS011;21537;48.226;16.400;2022-09-21T06:11:18;7.10;;;2.70;;
35424;SDS011;21537;48.226;16.400;2022-09-21T06:13:44;6.78;;;2.30;;
35424;SDS011;21537;48.226;16.400;2022-09-21T06:16:10;5.72;;;2.58;;
35424;SDS011;21537;48.226;16.400;2022-09-21T06:18:39;10.20;;;2.33;;
35424;SDS011;21537;48.226;16.400;2022-09-21T06:21:06;6.70;;;2.88;;
35424;SDS011;21537;48.226;16.400;2022-09-21T06:23:33;12.30;;;2.63;;
35424;SDS011;21537;48.226;16.400;2022-09-21T06:25:59;8.80;;;2.42;;
35424;SDS011;21537;48.226;16.400;2022-09-21T06:28:24;6.05;;;2.40;;
35424;SDS011;21537;48.226;16.400;2022-09-21T06:30:52;7.22;;;2.58;;
35424;SDS011;21537;48.226;16.400;2022-09-21T06:33:19;7.90;;;3.40;;
35424;SDS011;21537;48.226;16.400;2022-09-21T06:35:54;8.20;;;2.92;;
35424;SDS011;21537;48.226;16.400;2022-09-21T06:38:22;7.60;;;3.33;;
35424;SDS011;21537;48.226;16.400;2022-09-21T06:40:49;8.05;;;2.60;;
35424;SDS011;21537;48.226;16.400;2022-09-21T06:43:15;4.65;;;2.60;;
35424;SDS011;21537;48.226;16.400;2022-09-21T06:45:42;5.85;;;2.78;;
35424;SDS011;21537;48.226;16.400;2022-09-21T06:48:08;8.40;;;2.85;;
35424;SDS011;21537;48.226;16.400;2022-09-21T06:50:34;7.13;;;2.85;;
35424;SDS011;21537;48.226;16.400;2022-09-21T06:53:01;5.95;;;2.60;;
35424;SDS011;21537;48.226;16.400;2022-09-21T06:55:27;7.47;;;2.70;;
35424;SDS011;21537;48.226;16.400;2022-09-21T06:58:03;7.10;;;2.67;;
35424;SDS011;21537;48.226;16.400;2022-09-21T07:00:30;6.03;;;3.00;;
35424;SDS011;21537;48.226;16.400;2022-09-21T07:02:56;6.22;;;3.15;;
35424;SDS011;21537;48.226;16.400;2022-09-21T07:05:22;6.95;;;2.88;;
35424;SDS011;21537;48.226;16.400;2022-09-21T07:07:48;6.18;;;2.50;;
35424;SDS011;21537;48.226;16.400;2022-09-21T07:10:13;5.20;;;2.65;;
35424;SDS011;21537;48.226;16.400;2022-09-21T07:12:40;6.47;;;2.97;;
35424;SDS011;21537;48.226;16.400;2022-09-21T07:15:06;6.07;;;2.85;;
35424;SDS011;21537;48.226;16.400;2022-09-21T07:17:35;9.82;;;2.90;;
35424;SDS011;21537;48.226;16.400;2022-09-21T07:20:02;6.57;;;2.95;;
35424;SDS011;21537;48.226;16.400;2022-09-21T07:22:29;4.75;;;3.33;;
35424;SDS011;21537;48.226;16.400;2022-09-21T07:24:57;5.82;;;3.03;;
35424;SDS011;21537;48.226;16.400;2022-09-21T07:27:24;13.38;;;3.33;;
35424;SDS011;21537;48.226;16.400;2022-09-21T07:29:51;7.03;;;2.90;;
35424;SDS011;21537;48.226;16.400;2022-09-21T07:32:17;5.15;;;3.13;;
35424;SDS011;21537;48.226;16.400;2022-09-21T07:34:43;5.43;;;3.38;;
35424;SDS011;21537;48.226;16.400;2022-09-21T07:37:10;4.43;;;3.05;;
35424;SDS011;21537;48.226;16.400;2022-09-21T07:39:36;5.82;;;3.30;;
35424;SDS011;21537;48.226;16.400;2022-09-21T07:42:03;5.90;;;3.97;;
35424;SDS011;21537;48.226;16.400;2022-09-21T07:44:30;9.38;;;3.85;;
35424;SDS011;21537;48.226;16.400;2022-09-21T07:46:56;8.02;;;3.53;;
35424;SDS011;21537;48.226;16.400;2022-09-21T07:49:21;4.63;;;2.92;;
35424;SDS011;21537;48.226;16.400;2022-09-21T07:51:47;5.43;;;3.53;;
35424;SDS011;21537;48.226;16.400;2022-09-21T07:54:13;9.35;;;3.50;;
35424;SDS011;21537;48.226;16.400;2022-09-21T07:56:41;6.80;;;3.17;;
35424;SDS011;21537;48.226;16.400;2022-09-21T07:59:27;5.22;;;2.90;;
35424;SDS011;21537;48.226;16.400;2022-09-21T08:01:56;5.47;;;3.10;;
35424;SDS011;21537;48.226;16.400;2022-09-21T08:04:22;7.15;;;3.00;;
35424;SDS011;21537;48.226;16.400;2022-09-21T08:06:48;6.38;;;3.45;;
35424;SDS011;21537;48.226;16.400;2022-09-21T08:09:14;6.38;;;3.20;;
35424;SDS011;21537;48.226;16.400;2022-09-21T08:11:40;4.53;;;3.10;;
35424;SDS011;21537;48.226;16.400;2022-09-21T08:14:09;5.03;;;3.00;;
35424;SDS011;21537;48.226;16.400;2022-09-21T08:16:36;4.05;;;2.35;;
35424;SDS011;21537;48.226;16.400;2022-09-21T08:19:03;4.72;;;3.00;;
35424;SDS011;21537;48.226;16.400;2022-09-21T08:21:29;7.07;;;3.05;;
35424;SDS011;21537;48.226;16.400;2022-09-21T08:23:55;5.47;;;2.95;;
35424;SDS011;21537;48.226;16.400;2022-09-21T08:26:21;9.35;;;2.80;;
35424;SDS011;21537;48.226;16.400;2022-09-21T08:28:49;7.93;;;2.92;;
35424;SDS011;21537;48.226;16.400;2022-09-21T08:31:17;6.25;;;2.90;;
35424;SDS011;21537;48.226;16.400;2022-09-21T08:33:45;11.93;;;2.67;;
35424;SDS011;21537;48.226;16.400;2022-09-21T08:36:12;5.68;;;2.60;;
35424;SDS011;21537;48.226;16.400;2022-09-21T08:38:38;4.65;;;2.78;;
35424;SDS011;21537;48.226;16.400;2022-09-21T08:44:03;3.75;;;2.60;;
35424;SDS011;21537;48.226;16.400;2022-09-21T08:46:35;6.10;;;2.50;;
35424;SDS011;21537;48.226;16.400;2022-09-21T08:49:02;3.35;;;2.13;;
35424;SDS011;21537;48.226;16.400;2022-09-21T08:51:48;6.75;;;2.33;;
35424;SDS011;21537;48.226;16.400;2022-09-21T08:54:24;7.57;;;2.80;;
35424;SDS011;21537;48.226;16.400;2022-09-21T08:57:13;7.15;;;2.58;;
35424;SDS011;21537;48.226;16.400;2022-09-21T08:59:42;6.93;;;2.30;;
35424;SDS011;21537;48.226;16.400;2022-09-21T09:05:54;3.33;;;2.38;;
35424;SDS011;21537;48.226;16.400;2022-09-21T09:08:11;3.72;;;2.60;;
35424;SDS011;21537;48.226;16.400;2022-09-21T09:19:14;3.45;;;2.28;;
35424;SDS011;21537;48.226;16.400;2022-09-21T09:21:53;5.35;;;2.78;;
35424;SDS011;21537;48.226;16.400;2022-09-21T09:24:37;2.40;;;2.20;;
35424;SDS011;21537;48.226;16.400;2022-09-21T09:27:37;5.65;;;2.35;;
35424;SDS011;21537;48.226;16.400;2022-09-21T09:30:19;4.40;;;2.45;;
35424;SDS011;21537;48.226;16.400;2022-09-21T09:33:01;2.97;;;2.30;;
35424;SDS011;21537;48.226;16.400;2022-09-21T09:35:59;6.28;;;2.42;;
35424;SDS011;21537;48.226;16.400;2022-09-21T09:38:43;6.60;;;2.60;;
35424;SDS011;21537;48.226;16.400;2022-09-21T09:41:19;3.90;;;2.20;;
35424;SDS011;21537;48.226;16.400;2022-09-21T09:46:41;3.22;;;2.28;;
35424;SDS011;21537;48.226;16.400;2022-09-21T09:49:31;4.55;;;2.22;;
35424;SDS011;21537;48.226;16.400;2022-09-21T09:51:59;3.42;;;2.25;;
35424;SDS011;21537;48.226;16.400;2022-09-21T09:54:25;6.20;;;2.30;;
35424;SDS011;21537;48.226;16.400;2022-09-21T09:56:52;9.30;;;2.50;;
35424;SDS011;21537;48.226;16.400;2022-09-21T09:59:27;4.97;;;2.58;;
35424;SDS011;21537;48.226;16.400;2022-09-21T10:02:05;8.30;;;1.92;;
35424;SDS011;21537;48.226;16.400;2022-09-21T10:05:04;3.83;;;1.95;;
35424;SDS011;21537;48.226;16.400;2022-09-21T10:07:39;4.80;;;1.80;;
35424;SDS011;21537;48.226;16.400;2022-09-21T10:15:50;4.00;;;1.70;;
35424;SDS011;21537;48.226;16.400;2022-09-21T10:18:20;5.25;;;1.75;;
35424;SDS011;21537;48.226;16.400;2022-09-21T10:20:52;4.05;;;1.80;;
35424;SDS011;21537;48.226;16.400;2022-09-21T10:23:27;7.57;;;1.90;;
35424;SDS011;21537;48.226;16.400;2022-09-21T10:26:06;2.53;;;1.55;;
35424;SDS011;21537;48.226;16.400;2022-09-21T10:28:34;5.55;;;1.75;;
35424;SDS011;21537;48.226;16.400;2022-09-21T10:31:07;3.72;;;1.75;;
35424;SDS011;21537;48.226;16.400;2022-09-21T10:33:42;1.92;;;1.33;;
35424;SDS011;21537;48.226;16.400;2022-09-21T10:36:29;4.00;;;1.50;;
35424;SDS011;21537;48.226;16.400;2022-09-21T10:39:18;2.35;;;1.20;;
35424;SDS011;21537;48.226;16.400;2022-09-21T10:41:51;4.72;;;1.40;;
35424;SDS011;21537;48.226;16.400;2022-09-21T10:44:32;2.10;;;1.35;;
35424;SDS011;21537;48.226;16.400;2022-09-21T10:50:00;2.20;;;1.58;;
35424;SDS011;21537;48.226;16.400;2022-09-21T10:52:40;3.00;;;1.05;;
35424;SDS011;21537;48.226;16.400;2022-09-21T10:55:14;3.35;;;1.13;;
35424;SDS011;21537;48.226;16.400;2022-09-21T10:57:42;2.72;;;1.00;;
35424;SDS011;21537;48.226;16.400;2022-09-21T11:02:59;2.90;;;1.13;;
35424;SDS011;21537;48.226;16.400;2022-09-21T11:05:45;0.88;;;0.50;;
35424;SDS011;21537;48.226;16.400;2022-09-21T11:08:16;1.30;;;0.70;;
35424;SDS011;21537;48.226;16.400;2022-09-21T11:11:06;1.85;;;0.80;;
35424;SDS011;21537;48.226;16.400;2022-09-21T11:13:40;1.67;;;0.70;;
35424;SDS011;21537;48.226;16.400;2022-09-21T11:16:27;1.33;;;0.60;;
35424;SDS011;21537;48.226;16.400;2022-09-21T11:38:01;0.77;;;0.65;;
35424;SDS011;21537;48.226;16.400;2022-09-21T11:44:00;0.70;;;0.50;;
35424;SDS011;21537;48.226;16.400;2022-09-21T11:46:10;2.28;;;0.68;;
35424;SDS011;21537;48.226;16.400;2022-09-21T11:54:09;2.95;;;0.68;;
35424;SDS011;21537;48.226;16.400;2022-09-21T11:57:12;0.55;;;0.55;;
35424;SDS011;21537;48.226;16.400;2022-09-21T12:00:02;6.10;;;0.57;;
35424;SDS011;21537;48.226;16.400;2022-09-21T12:10:54;2.65;;;1.15;;
35424;SDS011;21537;48.226;16.400;2022-09-21T12:16:48;2.25;;;1.10;;
35424;SDS011;21537;48.226;16.400;2022-09-21T12:19:39;2.05;;;1.08;;
35424;SDS011;21537;48.226;16.400;2022-09-21T12:22:34;2.03;;;1.20;;
35424;SDS011;21537;48.226;16.400;2022-09-21T12:25:19;3.83;;;1.10;;
35424;SDS011;21537;48.226;16.400;2022-09-21T12:27:57;1.25;;;1.10;;
35424;SDS011;21537;48.226;16.400;2022-09-21T12:30:27;1.98;;;1.10;;
35424;SDS011;21537;48.226;16.400;2022-09-21T12:40:51;4.13;;;0.95;;
35424;SDS011;21537;48.226;16.400;2022-09-21T12:43:27;1.67;;;1.10;;
35424;SDS011;21537;48.226;16.400;2022-09-21T12:46:05;4.53;;;1.30;;
35424;SDS011;21537;48.226;16.400;2022-09-21T12:48:38;3.33;;;1.23;;
35424;SDS011;21537;48.226;16.400;2022-09-21T12:51:11;3.97;;;1.75;;
35424;SDS011;21537;48.226;16.400;2022-09-21T12:53:59;2.50;;;1.13;;
35424;SDS011;21537;48.226;16.400;2022-09-21T13:00:26;2.10;;;1.60;;
35424;SDS011;21537;48.226;16.400;2022-09-21T13:08:18;3.17;;;1.20;;
35424;SDS011;21537;48.226;16.400;2022-09-21T13:10:59;1.45;;;1.30;;
35424;SDS011;21537;48.226;16.400;2022-09-21T13:13:45;2.65;;;1.20;;
35424;SDS011;21537;48.226;16.400;2022-09-21T13:18:55;3.08;;;1.10;;
35424;SDS011;21537;48.226;16.400;2022-09-21T13:21:24;1.60;;;1.15;;
35424;SDS011;21537;48.226;16.400;2022-09-21T13:34:31;4.88;;;1.60;;
35424;SDS011;21537;48.226;16.400;2022-09-21T13:39:55;3.05;;;1.27;;
35424;SDS011;21537;48.226;16.400;2022-09-21T13:42:42;5.00;;;1.50;;
35424;SDS011;21537;48.226;16.400;2022-09-21T13:47:42;3.17;;;1.77;;
35424;SDS011;21537;48.226;16.400;2022-09-21T13:53:16;4.95;;;1.77;;
35424;SDS011;21537;48.226;16.400;2022-09-21T13:55:49;3.55;;;1.65;;
35424;SDS011;21537;48.226;16.400;2022-09-21T13:58:33;3.83;;;1.67;;
35424;SDS011;21537;48.226;16.400;2022-09-21T14:03:45;3.28;;;1.73;;
35424;SDS011;21537;48.226;16.400;2022-09-21T14:06:22;4.00;;;1.55;;
35424;SDS011;21537;48.226;16.400;2022-09-21T14:09:39;3.03;;;1.60;;
35424;SDS011;21537;48.226;16.400;2022-09-21T14:12:08;2.70;;;1.60;;
35424;SDS011;21537;48.226;16.400;2022-09-21T14:14:44;4.97;;;1.83;;
35424;SDS011;21537;48.226;16.400;2022-09-21T14:23:33;2.30;;;1.58;;
35424;SDS011;21537;48.226;16.400;2022-09-21T14:26:01;1.88;;;1.60;;
35424;SDS011;21537;48.226;16.400;2022-09-21T14:32:02;9.10;;;1.90;;
35424;SDS011;21537;48.226;16.400;2022-09-21T14:34:33;4.00;;;1.75;;
35424;SDS011;21537;48.226;16.400;2022-09-21T14:37:02;5.18;;;1.58;;
35424;SDS011;21537;48.226;16.400;2022-09-21T14:39:34;1.85;;;1.33;;
35424;SDS011;21537;48.226;16.400;2022-09-21T14:42:10;3.10;;;1.42;;
35424;SDS011;21537;48.226;16.400;2022-09-21T14:44:40;6.43;;;2.10;;
35424;SDS011;21537;48.226;16.400;2022-09-21T14:52:39;1.92;;;1.70;;
35424;SDS011;21537;48.226;16.400;2022-09-21T14:55:20;5.53;;;2.13;;
35424;SDS011;21537;48.226;16.400;2022-09-21T14:58:06;11.45;;;2.30;;
35424;SDS011;21537;48.226;16.400;2022-09-21T15:00:37;2.88;;;1.60;;
35424;SDS011;21537;48.226;16.400;2022-09-21T15:05:57;7.67;;;1.80;;
35424;SDS011;21537;48.226;16.400;2022-09-21T15:12:22;4.20;;;1.90;;
35424;SDS011;21537;48.226;16.400;2022-09-21T15:18:11;6.60;;;2.92;;
35424;SDS011;21537;48.226;16.400;2022-09-21T15:20:42;2.08;;;1.88;;
35424;SDS011;21537;48.226;16.400;2022-09-21T15:23:15;3.53;;;1.95;;
35424;SDS011;21537;48.226;16.400;2022-09-21T15:25:43;5.22;;;2.10;;
35424;SDS011;21537;48.226;16.400;2022-09-21T15:28:24;5.32;;;2.17;;
35424;SDS011;21537;48.226;16.400;2022-09-21T15:30:55;5.65;;;2.15;;
35424;SDS011;21537;48.226;16.400;2022-09-21T15:33:22;4.63;;;2.30;;
35424;SDS011;21537;48.226;16.400;2022-09-21T15:35:48;7.63;;;2.15;;
35424;SDS011;21537;48.226;16.400;2022-09-21T15:41:17;3.42;;;1.95;;
35424;SDS011;21537;48.226;16.400;2022-09-21T15:43:58;4.05;;;2.10;;
35424;SDS011;21537;48.226;16.400;2022-09-21T15:46:37;5.22;;;1.75;;
35424;SDS011;21537;48.226;16.400;2022-09-21T15:49:09;3.88;;;2.50;;
35424;SDS011;21537;48.226;16.400;2022-09-21T15:51:37;4.72;;;1.73;;
35424;SDS011;21537;48.226;16.400;2022-09-21T15:57:25;2.28;;;1.90;;
35424;SDS011;21537;48.226;16.400;2022-09-21T16:00:01;5.55;;;2.03;;
35424;SDS011;21537;48.226;16.400;2022-09-21T16:02:36;3.95;;;1.95;;
35424;SDS011;21537;48.226;16.400;2022-09-21T16:05:04;4.10;;;1.88;;
35424;SDS011;21537;48.226;16.400;2022-09-21T16:07:37;2.27;;;1.90;;
35424;SDS011;21537;48.226;16.400;2022-09-21T16:10:34;3.22;;;1.95;;
35424;SDS011;21537;48.226;16.400;2022-09-21T16:12:59;2.13;;;1.73;;
35424;SDS011;21537;48.226;16.400;2022-09-21T16:16:05;4.18;;;2.10;;
35424;SDS011;21537;48.226;16.400;2022-09-21T16:18:40;3.50;;;2.00;;
35424;SDS011;21537;48.226;16.400;2022-09-21T16:23:39;2.70;;;1.98;;
35424;SDS011;21537;48.226;16.400;2022-09-21T16:26:05;7.15;;;2.00;;
35424;SDS011;21537;48.226;16.400;2022-09-21T16:28:35;5.00;;;2.30;;
35424;SDS011;21537;48.226;16.400;2022-09-21T16:38:46;4.00;;;2.05;;
35424;SDS011;21537;48.226;16.400;2022-09-21T16:41:14;14.95;;;6.18;;
35424;SDS011;21537;48.226;16.400;2022-09-21T16:43:40;2.88;;;1.63;;
35424;SDS011;21537;48.226;16.400;2022-09-21T16:46:11;5.80;;;1.80;;
35424;SDS011;21537;48.226;16.400;2022-09-21T16:48:40;3.25;;;1.52;;
35424;SDS011;21537;48.226;16.400;2022-09-21T16:51:13;4.80;;;1.52;;
35424;SDS011;21537;48.226;16.400;2022-09-21T16:53:40;2.92;;;1.50;;
35424;SDS011;21537;48.226;16.400;2022-09-21T16:56:12;3.22;;;1.20;;
35424;SDS011;21537;48.226;16.400;2022-09-21T16:58:39;1.67;;;1.30;;
35424;SDS011;21537;48.226;16.400;2022-09-21T17:01:13;1.50;;;1.30;;
35424;SDS011;21537;48.226;16.400;2022-09-21T17:03:52;3.33;;;1.50;;
35424;SDS011;21537;48.226;16.400;2022-09-21T17:06:21;3.70;;;1.48;;
35424;SDS011;21537;48.226;16.400;2022-09-21T17:08:47;4.22;;;1.60;;
35424;SDS011;21537;48.226;16.400;2022-09-21T17:11:17;2.83;;;1.42;;
35424;SDS011;21537;48.226;16.400;2022-09-21T17:13:52;4.80;;;1.50;;
35424;SDS011;21537;48.226;16.400;2022-09-21T17:16:22;2.17;;;1.50;;
35424;SDS011;21537;48.226;16.400;2022-09-21T17:18:48;3.15;;;1.73;;
35424;SDS011;21537;48.226;16.400;2022-09-21T17:21:14;2.13;;;1.60;;
35424;SDS011;21537;48.226;16.400;2022-09-21T17:23:43;5.97;;;2.03;;
35424;SDS011;21537;48.226;16.400;2022-09-21T17:26:14;3.03;;;1.75;;
35424;SDS011;21537;48.226;16.400;2022-09-21T17:28:42;2.92;;;1.60;;
35424;SDS011;21537;48.226;16.400;2022-09-21T17:31:11;6.10;;;1.75;;
35424;SDS011;21537;48.226;16.400;2022-09-21T17:33:38;2.75;;;1.73;;
35424;SDS011;21537;48.226;16.400;2022-09-21T17:36:04;3.65;;;1.83;;
35424;SDS011;21537;48.226;16.400;2022-09-21T17:38:32;5.10;;;1.95;;
35424;SDS011;21537;48.226;16.400;2022-09-21T17:41:01;3.30;;;1.98;;
35424;SDS011;21537;48.226;16.400;2022-09-21T17:46:06;2.28;;;1.50;;
35424;SDS011;21537;48.226;16.400;2022-09-21T17:49:00;3.30;;;1.60;;
35424;SDS011;21537;48.226;16.400;2022-09-21T17:51:26;3.95;;;1.70;;
35424;SDS011;21537;48.226;16.400;2022-09-21T17:54:11;2.88;;;1.90;;
35424;SDS011;21537;48.226;16.400;2022-09-21T17:56:50;3.75;;;1.80;;
35424;SDS011;21537;48.226;16.400;2022-09-21T18:01:52;7.40;;;1.98;;
35424;SDS011;21537;48.226;16.400;2022-09-21T18:04:23;4.63;;;2.10;;
35424;SDS011;21537;48.226;16.400;2022-09-21T18:06:50;4.07;;;1.80;;
35424;SDS011;21537;48.226;16.400;2022-09-21T18:09:17;2.95;;;2.00;;
35424;SDS011;21537;48.226;16.400;2022-09-21T18:14:31;8.55;;;2.00;;
35424;SDS011;21537;48.226;16.400;2022-09-21T18:17:18;5.88;;;2.92;;
35424;SDS011;21537;48.226;16.400;2022-09-21T18:20:49;3.33;;;1.65;;
35424;SDS011;21537;48.226;16.400;2022-09-21T18:23:00;4.17;;;1.80;;